NCAR-RAP Real-Time Weather Data

Output produced by METARs form (21 May 2019  11:09 UTC)
found at http://weather.rap.ucar.edu/surface/
 
RJCM 211100Z 16015KT 9999 -SHRA FEW015 SCT060 BKN110 17/12 Q1001
RJCM 211000Z 16015KT 9999 FEW015 SCT040 BKN070 18/12 Q1001
RJCM 210900Z 17023G33KT 9999 -SHRA FEW015 BKN040 BKN090 19/12 Q1001
RJCM 210800Z 18025G35KT 9999 FEW015 SCT070 BKN090 19/12 Q1001
RJCM 210700Z 18028KT 9999 -SHRA FEW015 SCT030 BKN040 20/11 Q1001
RJCM 210600Z 18026G36KT 9999 FEW015 BKN080 BKN/// 21/11 Q1001
RJCM 210500Z 17024G45KT 9999 -SHRA FEW015 SCT060 BKN/// 20/12 Q1002
RJCM 210400Z 18024G36KT 9999 -SHRA FEW015 SCT040 BKN060 20/11 Q1003
RJCM 210300Z 18024KT 9999 FEW015 SCT030 BKN040 20/11 Q1003
RJCM 210200Z 16019KT 9999 FEW015 SCT030 BKN040 19/11 Q1004
RJCM 210100Z 18024KT 9999 FEW015 SCT030 BKN040 19/11 Q1005
RJCM 210000Z 18027KT 9999 FEW015 BKN040 BKN070 19/10 Q1005
RJCM 202300Z 18029KT 9999 FEW015 SCT040 BKN050 20/11 Q1005
RJCM 202245Z 17021G31KT 9999 FEW015 SCT040 BKN050 20/11 Q1005 RMK 1ST015 4CU040 6CU050 A2970
RJCM 201100Z 18027KT 9999 FEW020 BKN/// 17/10 Q1012
RJCM 201000Z 18025KT 9999 FEW020 BKN/// 17/10 Q1012
RJCM 200939Z 18024KT 9999 FEW020 BKN/// 17/10 Q1012 RMK 1CU020 A2989
RJCM 200900Z 18030KT 5000 BLDU FEW020 BKN/// 18/10 Q1012
RJCM 200800Z 17032G42KT 5000 BLDU FEW020 BKN/// 19/10 Q1011
RJCM 200720Z 18033G47KT 2400 BLDU FEW020 BKN/// 20/09 Q1011 RMK 1CU020 A2987
RJCM 200700Z 18036G47KT 2000 BLDU FEW020 BKN/// 20/09 Q1011
RJCM 200600Z 17036KT 1600 R18/1300VP1800D BLDU FEW020 BKN/// 21/08 Q1011
RJCM 200500Z 18029G40KT 1600 R18/1300VP1800D BLDU FEW020 BKN/// 22/08 Q1012 WS R18
RJCM 200400Z 18031G44KT 3000 BLDU FEW020 BKN/// 23/09 Q1012
RJCM 200300Z 18034KT 2500 BLDU FEW020 BKN/// 23/09 Q1013
RJCM 200200Z 19030G40KT 1600 R18/1300VP1800D BLDU FEW020 SCT030 BKN/// 23/09 Q1012
RJCM 200100Z 20019G30KT 180V240 2000 BLDU FEW020 BKN/// 22/09 Q1013
RJCM 200000Z 20019G31KT 180V240 3500 BLDU FEW020 SCT/// 22/07 Q1014
RJCM 192300Z 18027KT 4000 BLDU FEW020 SCT/// 21/08 Q1014
RJCM 192245Z 19024KT 4000 BLDU FEW020 SCT/// 21/08 Q1014 RMK 1CU020 A2995 9999N
RJCM 191100Z 19015KT 9999 FEW030 BKN/// 17/09 Q1018
RJCM 191000Z 18018KT 9999 FEW030 BKN/// 18/09 Q1017
RJCM 190900Z 18017KT 9999 FEW030 BKN/// 20/09 Q1017
RJCM 190800Z 16016KT 9999 FEW030 SCT/// 23/09 Q1016
RJCM 190700Z 17020KT 9999 FEW030 SCT/// 24/09 Q1016
RJCM 190600Z 17021KT 9999 FEW030 SCT/// 26/09 Q1016
RJCM 190500Z 16017KT 9999 FEW030 BKN/// 26/10 Q1016
RJCM 190400Z 17015KT 9999 FEW030 BKN/// 26/11 Q1017
RJCM 190300Z 18016KT 9999 FEW030 BKN/// 26/11 Q1017
RJCM 190200Z 18012KT 9999 FEW030 BKN/// 26/11 Q1018
RJCM 190100Z 20011KT 180V250 9999 FEW020 BKN/// 25/08 Q1018
RJCM 190000Z 22010KT 180V260 9999 FEW020 BKN/// 23/09 Q1019